Weather at Redman Residence Heliport [CLOSED]

Public forecast

Using degrees Fahrenheit for public forecast. Weather courtesy of forecast.io.

Closest aviation weather report (METAR) to Redman Residence Heliport

Closest report is Davis Monthan Air Force Base, 10.7 nm (19.9 km) SW. Retrieved 2020/09/20 16:58 UTC (4 minutes ago):

KDMA 201658Z AUTO 16012KT 10SM BKN140 33/06 A3000 RMK AO2 SLP110 T03320057 FZRANO

Closest aviation forecast (TAF) to Redman Residence Heliport

Closest forecast is Davis Monthan Air Force Base, 10.7 nm (19.9 km) SW. Retrieved 2020/09/20 14:21 UTC (3 hours ago):

TAF KDMA 201400Z 2014/2120 10009KT 9999 BKN130 QNH3002INS BECMG 2018/2019 29009KT 9999 SCT150 QNH2992INS BECMG 2109/2110 13006KT 9999 SCT140 QNH2999INS TX36/2022Z TN23/2113Z